createdAt,value
2018-05-25T00:02:22.024Z,79.47
2018-05-25T00:04:55.676Z,79.42
2018-05-25T00:07:29.252Z,79.40
2018-05-25T00:10:02.792Z,79.77
2018-05-25T00:12:36.485Z,79.85
2018-05-25T00:15:09.992Z,79.95
2018-05-25T00:17:43.748Z,79.99
2018-05-25T00:20:17.543Z,79.95
2018-05-25T00:22:51.152Z,79.64
2018-05-25T00:25:24.837Z,79.56
2018-05-25T00:27:58.580Z,79.33
2018-05-25T00:30:32.155Z,79.93
2018-05-25T00:33:05.741Z,79.80
2018-05-25T00:35:39.569Z,80.07
2018-05-25T00:38:13.352Z,80.34
2018-05-25T00:40:46.894Z,80.46
2018-05-25T00:43:20.660Z,80.54
2018-05-25T00:45:54.274Z,80.39
2018-05-25T00:48:27.915Z,80.38
2018-05-25T00:51:01.560Z,80.11
2018-05-25T00:53:35.229Z,80.31
2018-05-25T00:56:08.800Z,80.15
2018-05-25T00:58:42.533Z,80.19
2018-05-25T01:01:16.392Z,80.41
2018-05-25T01:03:50.181Z,80.30
2018-05-25T01:06:24.031Z,80.45
2018-05-25T01:08:57.641Z,80.54
2018-05-25T01:11:31.404Z,80.38
2018-05-25T01:14:05.005Z,80.32
2018-05-25T01:16:38.731Z,79.89
2018-05-25T01:19:12.272Z,79.87
2018-05-25T01:21:45.872Z,79.98
2018-05-25T01:24:19.432Z,78.90
2018-05-25T01:26:52.950Z,78.86
2018-05-25T01:29:26.684Z,79.09
2018-05-25T01:32:00.265Z,79.31
2018-05-25T01:34:33.982Z,78.91
2018-05-25T01:37:07.610Z,79.19
2018-05-25T01:39:41.263Z,79.10
2018-05-25T01:42:14.796Z,79.25
2018-05-25T01:44:48.535Z,79.25
2018-05-25T01:47:22.183Z,79.05
2018-05-25T01:49:55.868Z,79.36
2018-05-25T01:52:29.611Z,79.14
2018-05-25T01:55:03.280Z,79.14
2018-05-25T01:57:38.108Z,79.48
2018-05-25T02:00:11.836Z,79.40
2018-05-25T02:02:45.364Z,79.85
2018-05-25T02:05:18.934Z,79.91
2018-05-25T02:07:52.712Z,80.13
2018-05-25T02:10:26.401Z,80.38
2018-05-25T02:13:00.066Z,80.45
2018-05-25T02:15:33.588Z,79.99
2018-05-25T02:18:07.289Z,80.20
2018-05-25T02:20:40.991Z,80.48
2018-05-25T02:23:14.631Z,80.75
2018-05-25T02:25:48.376Z,80.75
2018-05-25T02:28:22.052Z,81.05
2018-05-25T02:30:55.583Z,81.14
2018-05-25T02:33:29.140Z,81.21
2018-05-25T02:36:02.797Z,81.36
2018-05-25T02:38:36.389Z,81.21
2018-05-25T02:41:09.875Z,81.63
2018-05-25T02:43:43.421Z,81.35
2018-05-25T02:46:17.168Z,81.42
2018-05-25T02:48:50.890Z,81.42
2018-05-25T02:51:24.564Z,81.51
2018-05-25T02:53:58.283Z,81.65
2018-05-25T02:56:32.068Z,81.67
2018-05-25T02:59:05.758Z,81.31
2018-05-25T03:01:39.474Z,81.68
2018-05-25T03:04:13.168Z,81.89
2018-05-25T03:06:46.892Z,82.05
2018-05-25T03:09:20.400Z,82.20
2018-05-25T03:11:54.121Z,82.44
2018-05-25T03:14:27.691Z,82.62
2018-05-25T03:17:01.552Z,82.76
2018-05-25T03:19:35.108Z,82.91
2018-05-25T03:22:08.768Z,83.03
2018-05-25T03:24:42.447Z,82.85
2018-05-25T03:27:15.988Z,82.69
2018-05-25T03:29:49.724Z,82.69
2018-05-25T03:32:23.312Z,83.21
2018-05-25T03:34:57.007Z,82.82
2018-05-25T03:37:30.536Z,82.68
2018-05-25T03:40:04.178Z,82.77
2018-05-25T03:42:37.932Z,82.86
2018-05-25T03:45:11.732Z,82.38
2018-05-25T03:47:45.361Z,82.22
2018-05-25T03:50:18.855Z,81.89
2018-05-25T03:52:52.512Z,82.00
2018-05-25T03:55:26.272Z,81.65
2018-05-25T03:58:00.005Z,81.89
2018-05-25T04:00:45.404Z,82.12
2018-05-25T04:03:19.180Z,82.06
2018-05-25T04:05:52.736Z,82.10
2018-05-25T04:08:26.416Z,82.15
2018-05-25T04:10:59.912Z,82.08
2018-05-25T04:13:33.700Z,81.97
2018-05-25T04:16:07.325Z,82.01
2018-05-25T04:18:40.874Z,81.74
2018-05-25T04:21:14.519Z,81.94
2018-05-25T04:23:48.284Z,82.24
2018-05-25T04:26:21.930Z,82.29
2018-05-25T04:28:55.594Z,82.25
2018-05-25T04:31:29.298Z,82.05
2018-05-25T04:34:02.874Z,82.07
2018-05-25T04:36:36.619Z,81.51
2018-05-25T04:39:10.396Z,81.37
2018-05-25T04:41:44.052Z,81.41
2018-05-25T04:44:17.634Z,81.06
2018-05-25T04:46:51.402Z,81.18
2018-05-25T04:49:24.981Z,80.53
2018-05-25T04:51:58.628Z,79.80
2018-05-25T04:54:32.330Z,79.87
2018-05-25T04:57:05.897Z,79.76
2018-05-25T04:59:39.671Z,79.56
2018-05-25T05:02:13.245Z,79.39
2018-05-25T05:04:46.967Z,79.48
2018-05-25T05:07:20.652Z,78.52
2018-05-25T05:09:54.268Z,78.30
2018-05-25T05:12:27.914Z,78.36
2018-05-25T05:15:01.728Z,78.24
2018-05-25T05:17:35.228Z,78.23
2018-05-25T05:20:08.974Z,78.12
2018-05-25T05:22:42.604Z,78.19
2018-05-25T05:25:16.241Z,77.86
2018-05-25T05:27:49.744Z,77.56
2018-05-25T05:30:23.404Z,77.34
2018-05-25T05:32:56.973Z,77.01
2018-05-25T05:35:30.685Z,76.19
2018-05-25T05:38:04.298Z,75.93
2018-05-25T05:40:38.155Z,75.42
2018-05-25T05:43:12.007Z,75.61
2018-05-25T05:45:45.644Z,75.02
2018-05-25T05:48:19.388Z,74.12
2018-05-25T05:50:53.064Z,74.60
2018-05-25T05:53:26.666Z,72.90
2018-05-25T05:56:00.506Z,73.23
2018-05-25T05:58:34.172Z,73.03
2018-05-25T06:01:07.744Z,72.58
2018-05-25T06:03:41.243Z,72.81
2018-05-25T06:06:14.908Z,72.47
2018-05-25T06:08:49.021Z,72.89
2018-05-25T06:11:22.919Z,72.63
2018-05-25T06:13:56.469Z,72.13
2018-05-25T06:16:30.151Z,72.00
2018-05-25T06:19:03.936Z,70.56
2018-05-25T06:21:37.580Z,70.22
2018-05-25T06:24:11.512Z,70.03
2018-05-25T06:26:45.203Z,70.42
2018-05-25T06:29:18.914Z,71.77
2018-05-25T06:31:52.420Z,69.80
2018-05-25T06:34:25.972Z,70.61
2018-05-25T06:36:59.515Z,69.80
2018-05-25T06:39:33.079Z,70.18
2018-05-25T06:42:06.868Z,71.32
2018-05-25T06:44:40.624Z,71.27
2018-05-25T06:47:14.196Z,72.21
2018-05-25T06:49:47.714Z,70.97
2018-05-25T06:52:21.453Z,70.08
2018-05-25T06:54:55.265Z,68.49
2018-05-25T06:57:28.985Z,68.37
2018-05-25T07:00:02.653Z,66.81
2018-05-25T07:02:36.312Z,68.29
2018-05-25T07:05:10.087Z,67.53
2018-05-25T07:07:43.859Z,64.23
2018-05-25T07:10:17.565Z,61.35
2018-05-25T07:12:51.205Z,59.97
2018-05-25T07:15:24.748Z,60.78
2018-05-25T07:18:04.285Z,61.34
2018-05-25T07:20:38.030Z,60.25
2018-05-25T07:23:11.703Z,60.35
2018-05-25T07:25:45.393Z,62.58
2018-05-25T07:28:19.276Z,64.17
2018-05-25T07:30:53.030Z,65.91
2018-05-25T07:33:26.855Z,66.20
2018-05-25T07:36:00.497Z,67.07
2018-05-25T07:38:34.122Z,67.17
2018-05-25T07:41:07.753Z,66.78
2018-05-25T07:43:41.325Z,66.51
2018-05-25T07:46:14.955Z,66.23
2018-05-25T07:48:48.672Z,66.26
2018-05-25T07:51:22.596Z,64.80
2018-05-25T07:53:56.293Z,64.28
2018-05-25T07:56:29.993Z,64.04
2018-05-25T07:59:03.624Z,64.00
2018-05-25T08:01:37.493Z,64.47
2018-05-25T08:04:11.105Z,64.99
2018-05-25T08:06:44.905Z,65.15
2018-05-25T08:09:18.666Z,64.46
2018-05-25T08:11:52.284Z,64.89
2018-05-25T08:14:25.900Z,65.50
2018-05-25T08:17:00.329Z,64.67
2018-05-25T08:19:34.157Z,65.09
2018-05-25T08:22:07.836Z,64.16
2018-05-25T08:24:41.511Z,63.73
2018-05-25T08:27:15.259Z,62.92
2018-05-25T08:29:49.052Z,63.41
2018-05-25T08:32:22.681Z,63.49
2018-05-25T08:34:56.296Z,62.71
2018-05-25T08:37:29.969Z,62.78
2018-05-25T08:40:03.802Z,62.89
2018-05-25T08:42:37.624Z,61.10
2018-05-25T08:45:11.460Z,62.09
2018-05-25T08:47:45.175Z,59.07
2018-05-25T08:50:18.908Z,57.92
2018-05-25T08:52:52.527Z,56.99
2018-05-25T08:55:26.243Z,56.39
2018-05-25T08:57:59.869Z,56.23
2018-05-25T09:00:33.521Z,58.03
2018-05-25T09:03:07.227Z,57.48
2018-05-25T09:05:41.017Z,55.85
2018-05-25T09:08:14.745Z,56.10
2018-05-25T09:10:48.360Z,54.87
2018-05-25T09:13:22.137Z,55.25
2018-05-25T09:15:55.905Z,55.56
2018-05-25T09:18:29.473Z,52.39
2018-05-25T09:21:03.177Z,45.10
2018-05-25T09:23:36.761Z,41.92
2018-05-25T09:26:10.493Z,39.98
2018-05-25T09:28:44.239Z,38.58
2018-05-25T09:31:18.209Z,41.15
2018-05-25T09:33:51.896Z,42.17
2018-05-25T09:36:25.701Z,42.05
2018-05-25T09:38:59.433Z,45.18
2018-05-25T09:41:33.070Z,45.09
2018-05-25T09:44:06.766Z,47.15
2018-05-25T09:46:40.397Z,47.21
2018-05-25T09:49:14.105Z,46.88
2018-05-25T09:51:47.883Z,45.68
2018-05-25T09:54:21.508Z,42.23
2018-05-25T09:57:01.216Z,44.23
2018-05-25T09:59:35.034Z,40.06
2018-05-25T10:02:09.060Z,37.42
2018-05-25T10:04:42.886Z,39.28
2018-05-25T10:07:16.611Z,40.35
2018-05-25T10:09:50.343Z,43.72
2018-05-25T10:12:23.973Z,42.51
2018-05-25T10:14:57.761Z,39.11
2018-05-25T10:17:31.497Z,38.69
2018-05-25T10:20:05.172Z,37.24
2018-05-25T10:22:38.932Z,37.93
2018-05-25T10:25:12.665Z,38.37
2018-05-25T10:27:46.341Z,36.37
2018-05-25T10:30:20.059Z,36.25
2018-05-25T10:32:53.693Z,40.29
2018-05-25T10:35:27.241Z,40.92
2018-05-25T10:38:01.041Z,42.27
2018-05-25T10:40:34.770Z,40.62
2018-05-25T10:43:08.328Z,39.95
2018-05-25T10:45:42.121Z,42.97
2018-05-25T10:48:15.834Z,41.51
2018-05-25T10:50:49.437Z,43.41
2018-05-25T10:53:23.043Z,41.39
2018-05-25T10:55:56.732Z,37.33
2018-05-25T10:58:30.480Z,41.17
2018-05-25T11:01:04.137Z,37.62
2018-05-25T11:03:37.938Z,31.93
2018-05-25T11:06:11.483Z,36.08
2018-05-25T11:08:45.194Z,31.43
2018-05-25T11:11:18.997Z,33.32
2018-05-25T11:13:53.042Z,31.29
2018-05-25T11:19:26.045Z,31.42
2018-05-25T11:21:59.797Z,29.52
2018-05-25T11:24:33.436Z,31.44
2018-05-25T11:27:27.834Z,34.05
2018-05-25T11:30:01.498Z,33.34
2018-05-25T11:32:35.135Z,33.04
2018-05-25T11:35:08.839Z,39.41
2018-05-25T11:37:42.516Z,39.60
2018-05-25T11:40:16.284Z,32.10
2018-05-25T11:42:50.000Z,33.06
2018-05-25T11:45:23.554Z,37.16
2018-05-25T11:47:57.317Z,39.01
2018-05-25T11:50:31.047Z,42.31
2018-05-25T11:53:04.698Z,41.03
2018-05-25T11:55:39.599Z,41.16
2018-05-25T11:58:13.308Z,40.39
2018-05-25T12:00:47.020Z,42.11
2018-05-25T12:03:20.764Z,42.91
2018-05-25T12:05:54.493Z,43.13
2018-05-25T12:08:28.241Z,44.14
2018-05-25T12:11:01.897Z,47.48
2018-05-25T12:13:35.603Z,49.42
2018-05-25T12:16:09.442Z,49.08
2018-05-25T12:18:43.144Z,47.41
2018-05-25T12:21:16.717Z,45.55
2018-05-25T12:23:50.430Z,44.48
2018-05-25T12:26:24.135Z,45.51
2018-05-25T12:28:57.853Z,50.09
2018-05-25T12:31:31.403Z,49.69
2018-05-25T12:34:05.088Z,49.93
2018-05-25T12:36:38.776Z,50.29
2018-05-25T12:39:12.544Z,52.73
2018-05-25T12:41:46.151Z,51.61
2018-05-25T12:44:19.709Z,51.45
2018-05-25T12:46:53.460Z,53.18
2018-05-25T12:49:26.968Z,53.01
2018-05-25T12:52:00.535Z,53.42
2018-05-25T12:54:34.151Z,53.91
2018-05-25T12:57:07.847Z,54.12
2018-05-25T12:59:41.360Z,54.94
2018-05-25T13:02:14.950Z,54.86
2018-05-25T13:04:48.664Z,55.26
2018-05-25T13:07:22.456Z,54.81
2018-05-25T13:09:55.956Z,54.33
2018-05-25T13:12:29.573Z,55.50
2018-05-25T13:15:03.108Z,56.88
2018-05-25T13:17:36.908Z,56.64
2018-05-25T13:20:10.552Z,56.70
2018-05-25T13:22:44.107Z,56.17
2018-05-25T13:25:17.876Z,56.81
2018-05-25T13:27:51.455Z,57.04
2018-05-25T13:30:25.132Z,58.38
2018-05-25T13:32:58.612Z,57.91
2018-05-25T13:35:32.189Z,58.37
2018-05-25T13:38:05.763Z,58.12
2018-05-25T13:40:39.491Z,56.59
2018-05-25T13:43:13.203Z,57.07
2018-05-25T13:45:46.732Z,57.29
2018-05-25T13:48:20.564Z,57.10
2018-05-25T13:50:54.063Z,58.46
2018-05-25T13:53:27.676Z,56.81
2018-05-25T13:56:01.295Z,56.54
2018-05-25T13:58:35.043Z,57.04
2018-05-25T14:01:08.569Z,56.51
2018-05-25T14:03:42.151Z,55.72
2018-05-25T14:06:15.823Z,54.95
2018-05-25T14:08:49.419Z,52.65
2018-05-25T14:11:23.093Z,52.23
2018-05-25T14:13:56.611Z,48.15
2018-05-25T14:16:30.496Z,49.46
2018-05-25T14:19:04.170Z,49.52
2018-05-25T14:21:37.700Z,47.69
2018-05-25T14:24:11.272Z,44.73
2018-05-25T14:26:45.141Z,45.56
2018-05-25T14:29:18.684Z,43.73
2018-05-25T14:31:52.392Z,39.69
2018-05-25T14:34:26.196Z,37.61
2018-05-25T14:36:59.677Z,37.54
2018-05-25T14:39:33.429Z,37.32
2018-05-25T14:42:07.108Z,37.98
2018-05-25T14:44:40.888Z,36.47
2018-05-25T14:47:14.407Z,36.69
2018-05-25T14:49:48.091Z,38.43
2018-05-25T14:52:21.684Z,37.00
2018-05-25T14:54:55.495Z,37.68
2018-05-25T14:57:29.245Z,37.09
2018-05-25T15:00:02.853Z,36.35
2018-05-25T15:02:36.388Z,36.63
2018-05-25T15:05:10.029Z,36.54
2018-05-25T15:07:43.584Z,38.23
2018-05-25T15:10:17.224Z,34.74
2018-05-25T15:12:50.998Z,34.87
2018-05-25T15:15:24.582Z,35.98
2018-05-25T15:17:58.218Z,37.31
2018-05-25T15:20:31.870Z,38.37
2018-05-25T15:23:05.435Z,38.78
2018-05-25T15:25:39.133Z,40.10
2018-05-25T15:28:12.875Z,42.32
2018-05-25T15:30:46.482Z,42.20
2018-05-25T15:33:20.037Z,43.09
2018-05-25T15:35:53.859Z,43.02
2018-05-25T15:38:27.492Z,43.78
2018-05-25T15:41:01.292Z,44.46
2018-05-25T15:43:34.825Z,44.20
2018-05-25T15:46:08.628Z,45.40
2018-05-25T15:48:43.018Z,43.32
2018-05-25T15:51:16.591Z,43.89
2018-05-25T15:53:50.335Z,44.74
2018-05-25T15:56:23.937Z,44.46
2018-05-25T15:58:57.564Z,44.51
2018-05-25T16:01:31.090Z,44.35
2018-05-25T16:04:04.796Z,42.43
2018-05-25T16:06:38.392Z,43.06
2018-05-25T16:09:12.046Z,43.57
2018-05-25T16:11:45.589Z,44.50
2018-05-25T16:14:19.379Z,43.76
2018-05-25T16:16:52.906Z,43.34
2018-05-25T16:19:26.504Z,43.33
2018-05-25T16:22:00.032Z,44.13
2018-05-25T16:24:33.764Z,44.11
2018-05-25T16:27:07.317Z,45.18
2018-05-25T16:29:41.015Z,47.60
2018-05-25T16:32:14.553Z,47.65
2018-05-25T16:34:48.217Z,47.51
2018-05-25T16:37:21.820Z,47.21
2018-05-25T16:39:55.427Z,47.46
2018-05-25T16:42:29.044Z,47.75
2018-05-25T16:45:02.712Z,47.03
2018-05-25T16:47:36.342Z,47.60
2018-05-25T16:50:09.987Z,48.06
2018-05-25T16:52:43.612Z,48.60
2018-05-25T16:55:17.241Z,50.31
2018-05-25T16:57:50.886Z,48.36
2018-05-25T17:00:24.445Z,48.61
2018-05-25T17:02:57.956Z,49.10
2018-05-25T17:05:31.830Z,48.85
2018-05-25T17:08:05.612Z,48.96
2018-05-25T17:10:39.164Z,49.36
2018-05-25T17:13:12.836Z,48.94
2018-05-25T17:15:46.475Z,49.51
2018-05-25T17:18:19.980Z,48.76
2018-05-25T17:20:53.736Z,48.06
2018-05-25T17:23:27.236Z,47.80
2018-05-25T17:26:01.062Z,46.41
2018-05-25T17:28:34.771Z,46.74
2018-05-25T17:31:08.536Z,47.10
2018-05-25T17:33:42.378Z,46.79
2018-05-25T17:36:16.195Z,47.32
2018-05-25T17:38:49.872Z,47.07
2018-05-25T17:41:23.448Z,48.52
2018-05-25T17:43:57.007Z,48.16
2018-05-25T17:46:30.600Z,49.04
2018-05-25T17:49:04.288Z,49.29
2018-05-25T17:51:38.036Z,50.25
2018-05-25T17:54:11.573Z,52.20
2018-05-25T17:56:45.139Z,52.58
2018-05-25T17:59:18.924Z,53.18
2018-05-25T18:01:52.429Z,53.17
2018-05-25T18:04:26.050Z,53.84
2018-05-25T18:06:59.716Z,54.78
2018-05-25T18:09:33.223Z,54.82
2018-05-25T18:12:07.016Z,54.98
2018-05-25T18:14:40.757Z,55.43
2018-05-25T18:17:14.534Z,55.88
2018-05-25T18:19:48.187Z,55.21
2018-05-25T18:22:21.792Z,55.84
2018-05-25T18:24:55.500Z,55.30
2018-05-25T18:27:29.224Z,55.37
2018-05-25T18:30:02.759Z,55.68
2018-05-25T18:32:36.568Z,56.43
2018-05-25T18:35:10.283Z,56.20
2018-05-25T18:37:43.864Z,56.83
2018-05-25T18:40:17.503Z,57.08
2018-05-25T18:42:51.062Z,57.38
2018-05-25T18:45:24.991Z,57.41
2018-05-25T18:47:58.689Z,57.74
2018-05-25T18:50:32.311Z,57.69
2018-05-25T18:53:05.878Z,58.05
2018-05-25T18:55:39.528Z,58.41
2018-05-25T18:58:13.160Z,59.03
2018-05-25T19:00:46.803Z,60.28
2018-05-25T19:03:20.488Z,60.09
2018-05-25T19:05:54.197Z,59.84
2018-05-25T19:08:27.806Z,60.46
2018-05-25T19:11:01.613Z,60.37
2018-05-25T19:13:35.229Z,60.96
2018-05-25T19:16:09.048Z,61.96
2018-05-25T19:18:42.630Z,61.97
2018-05-25T19:21:16.181Z,62.39
2018-05-25T19:23:49.817Z,62.23
2018-05-25T19:26:23.393Z,62.17
2018-05-25T19:28:57.176Z,62.31
2018-05-25T19:31:30.869Z,62.58
2018-05-25T19:34:04.431Z,62.63
2018-05-25T19:36:38.056Z,62.46
2018-05-25T19:39:11.592Z,62.56
2018-05-25T19:41:45.240Z,62.88
2018-05-25T19:44:19.038Z,62.44
2018-05-25T19:46:52.668Z,62.77
2018-05-25T19:49:26.494Z,63.23
2018-05-25T19:52:00.027Z,63.45
2018-05-25T19:54:33.683Z,63.13
2018-05-25T19:57:07.435Z,63.92
2018-05-25T19:59:41.152Z,64.29
2018-05-25T20:02:15.049Z,63.80
2018-05-25T20:04:48.512Z,64.70
2018-05-25T20:07:22.079Z,65.70
2018-05-25T20:09:56.379Z,65.64
2018-05-25T20:12:29.939Z,65.65
2018-05-25T20:15:03.759Z,66.89
2018-05-25T20:17:37.439Z,67.05
2018-05-25T20:20:11.173Z,67.09
2018-05-25T20:22:44.720Z,67.27
2018-05-25T20:25:18.515Z,67.46
2018-05-25T20:27:52.235Z,67.50
2018-05-25T20:30:25.739Z,67.24
2018-05-25T20:32:59.299Z,66.66
2018-05-25T20:35:33.083Z,65.67
2018-05-25T20:38:06.740Z,65.84
2018-05-25T20:40:40.391Z,66.53
2018-05-25T20:43:14.200Z,66.40
2018-05-25T20:45:47.704Z,66.00
2018-05-25T20:48:21.280Z,65.70
2018-05-25T20:50:54.808Z,66.20
2018-05-25T20:53:28.412Z,66.52
2018-05-25T20:56:02.100Z,66.46
2018-05-25T20:58:35.891Z,66.42
2018-05-25T21:01:09.735Z,66.09
2018-05-25T21:03:43.268Z,65.95
2018-05-25T21:06:17.348Z,66.02
2018-05-25T21:08:51.006Z,66.32
2018-05-25T21:11:24.852Z,66.63
2018-05-25T21:13:58.460Z,66.66
2018-05-25T21:16:32.939Z,66.80
2018-05-25T21:19:06.719Z,66.79
2018-05-25T21:21:40.516Z,67.02
2018-05-25T21:24:14.314Z,66.79
2018-05-25T21:26:47.776Z,67.58
2018-05-25T21:29:21.507Z,67.60
2018-05-25T21:31:55.055Z,67.43
2018-05-25T21:34:28.824Z,67.32
2018-05-25T21:37:03.176Z,67.17
2018-05-25T21:39:36.861Z,66.80
2018-05-25T21:42:10.481Z,66.96
2018-05-25T21:44:44.084Z,67.16
2018-05-25T21:47:17.655Z,68.01
2018-05-25T21:49:51.272Z,67.71
2018-05-25T21:52:24.992Z,68.23
2018-05-25T21:54:58.603Z,68.19
2018-05-25T21:57:32.227Z,68.48
2018-05-25T22:00:05.785Z,68.46
2018-05-25T22:02:39.452Z,68.40
2018-05-25T22:05:13.272Z,68.13
2018-05-25T22:07:46.892Z,68.29
2018-05-25T22:10:20.560Z,68.49
2018-05-25T22:12:54.064Z,68.35
2018-05-25T22:15:27.725Z,68.40
2018-05-25T22:18:01.307Z,68.55
2018-05-25T22:20:34.872Z,68.76
2018-05-25T22:23:08.624Z,68.48
2018-05-25T22:25:42.367Z,69.28
2018-05-25T22:28:15.922Z,69.03
2018-05-25T22:30:49.697Z,69.03
2018-05-25T22:33:23.453Z,68.79
2018-05-25T22:35:57.063Z,68.32
2018-05-25T22:38:30.597Z,68.02
2018-05-25T22:41:04.264Z,67.88
2018-05-25T22:43:49.759Z,67.91
2018-05-25T22:46:35.376Z,68.32
2018-05-25T22:49:21.001Z,68.33
2018-05-25T22:52:06.608Z,68.22
2018-05-25T22:54:41.952Z,68.55
2018-05-25T22:57:15.657Z,68.89
2018-05-25T22:59:49.296Z,69.46
2018-05-25T23:02:22.789Z,69.55
2018-05-25T23:04:56.580Z,70.02
2018-05-25T23:07:30.317Z,70.33
2018-05-25T23:10:04.029Z,70.38
2018-05-25T23:12:37.565Z,69.89
2018-05-25T23:15:11.176Z,69.97
2018-05-25T23:17:44.917Z,70.18
2018-05-25T23:20:18.482Z,70.35
2018-05-25T23:22:52.028Z,70.35
2018-05-25T23:25:25.877Z,70.28
2018-05-25T23:27:59.408Z,69.85
2018-05-25T23:30:33.188Z,70.30
2018-05-25T23:33:06.727Z,70.20
2018-05-25T23:35:40.407Z,70.28
2018-05-25T23:38:14.143Z,70.17
2018-05-25T23:40:47.801Z,70.12
2018-05-25T23:43:21.419Z,70.01
2018-05-25T23:45:54.974Z,70.06
2018-05-25T23:48:28.734Z,70.32
2018-05-25T23:51:02.493Z,70.11
2018-05-25T23:53:36.017Z,69.80
2018-05-25T23:56:09.544Z,70.51
2018-05-25T23:58:43.233Z,70.34
